createdAt,value
2022-12-01T00:00:59.228Z,102685.34
2022-12-01T00:03:25.974Z,102684.31
2022-12-01T00:06:02.096Z,102689.47
2022-12-01T00:08:28.945Z,102684.22
2022-12-01T00:10:55.540Z,102684.19
2022-12-01T00:13:21.827Z,102683.34
2022-12-01T00:15:48.101Z,102685.16
2022-12-01T00:18:14.368Z,102680.75
2022-12-01T00:20:40.599Z,102680.75
2022-12-01T00:23:06.833Z,102681.56
2022-12-01T00:25:33.083Z,102671.88
2022-12-01T00:27:59.340Z,102683.44
2022-12-01T00:30:25.576Z,102688.50
2022-12-01T00:32:51.837Z,102682.44
2022-12-01T00:35:18.138Z,102680.66
2022-12-01T00:37:44.378Z,102682.34
2022-12-01T00:40:10.858Z,102685.78
2022-12-01T00:42:37.343Z,102678.84
2022-12-01T00:45:04.285Z,102688.31
2022-12-01T00:47:30.566Z,102689.31
2022-12-01T00:49:56.803Z,102684.81
2022-12-01T00:52:23.074Z,102684.81
2022-12-01T00:54:49.323Z,102686.50
2022-12-01T00:57:15.570Z,102692.72
2022-12-01T00:59:41.815Z,102690.03
2022-12-01T01:02:08.250Z,102691.72
2022-12-01T01:04:35.269Z,102688.31
2022-12-01T01:07:01.972Z,102697.94
2022-12-01T01:09:28.227Z,102696.22
2022-12-01T01:11:54.511Z,102701.19
2022-12-01T01:14:21.639Z,102702.09
2022-12-01T01:16:48.549Z,102703.63
2022-12-01T01:19:15.639Z,102708.84
2022-12-01T01:21:41.928Z,102716.69
2022-12-01T01:24:08.290Z,102705.25
2022-12-01T01:26:35.453Z,102710.47
2022-12-01T01:29:02.461Z,102706.97
2022-12-01T01:31:29.496Z,102703.44
2022-12-01T01:33:56.565Z,102700.84
2022-12-01T01:36:23.134Z,102707.84
2022-12-01T01:38:53.212Z,102703.34
2022-12-01T01:41:19.671Z,102712.09
2022-12-01T01:43:47.300Z,102719.03
2022-12-01T01:46:17.668Z,102716.41
2022-12-01T01:49:04.316Z,102712.09
2022-12-01T01:51:35.622Z,102712.09
2022-12-01T01:54:08.295Z,102714.72
2022-12-01T01:56:35.351Z,102722.66
2022-12-01T01:59:01.719Z,102720.91
2022-12-01T02:01:28.107Z,102714.81
2022-12-01T02:03:54.897Z,102714.00
2022-12-01T02:06:22.509Z,102714.72
2022-12-01T02:08:48.903Z,102707.69
2022-12-01T02:11:17.991Z,102708.47
2022-12-01T02:14:03.485Z,102710.22
2022-12-01T02:16:48.591Z,102714.53
2022-12-01T02:19:30.290Z,102718.78
2022-12-01T02:22:14.976Z,102707.50
2022-12-01T02:25:00.681Z,102717.03
2022-12-01T02:27:39.176Z,102708.47
2022-12-01T02:30:16.802Z,102712.91
2022-12-01T02:32:48.769Z,102714.81
2022-12-01T02:35:18.874Z,102700.84
2022-12-01T02:37:57.431Z,102706.25
2022-12-01T02:40:31.451Z,102703.63
2022-12-01T02:43:17.979Z,102709.84
2022-12-01T02:45:54.921Z,102703.88
2022-12-01T02:48:34.658Z,102713.47
2022-12-01T02:51:03.020Z,102708.38
2022-12-01T02:53:29.528Z,102705.78
2022-12-01T02:55:57.751Z,102712.72
2022-12-01T02:58:24.354Z,102703.25
2022-12-01T03:01:05.029Z,102703.16
2022-12-01T03:03:47.510Z,102704.06
2022-12-01T03:06:20.270Z,102704.06
2022-12-01T03:08:46.474Z,102703.16
2022-12-01T03:11:26.986Z,102704.06
2022-12-01T03:14:08.745Z,102710.13
2022-12-01T03:16:44.284Z,102701.28
2022-12-01T03:19:22.015Z,102709.00
2022-12-01T03:21:55.331Z,102702.81
2022-12-01T03:24:23.761Z,102704.59
2022-12-01T03:26:55.395Z,102703.72
2022-12-01T03:29:24.944Z,102701.03
2022-12-01T03:31:53.818Z,102699.19
2022-12-01T03:34:24.169Z,102706.16
2022-12-01T03:36:53.528Z,102699.19
2022-12-01T03:39:26.431Z,102706.16
2022-12-01T03:42:01.690Z,102699.28
2022-12-01T03:44:36.846Z,102697.41
2022-12-01T03:47:08.621Z,102704.41
2022-12-01T03:49:35.709Z,102712.25
2022-12-01T03:52:37.776Z,102710.66
2022-12-01T03:55:11.961Z,102708.03
2022-12-01T03:57:42.162Z,102705.44
2022-12-01T04:00:11.168Z,102709.75
2022-12-01T04:02:38.055Z,102701.19
2022-12-01T04:05:05.195Z,102703.78
2022-12-01T04:07:31.568Z,102712.53
2022-12-01T04:09:57.880Z,102702.91
2022-12-01T04:12:29.920Z,102707.94
2022-12-01T04:14:57.115Z,102701.13
2022-12-01T04:17:23.852Z,102703.53
2022-12-01T04:19:50.369Z,102699.91
2022-12-01T04:22:17.096Z,102705.09
2022-12-01T04:24:43.495Z,102718.16
2022-12-01T04:27:09.841Z,102712.00
2022-12-01T04:29:36.104Z,102716.31
2022-12-01T04:32:02.375Z,102717.22
2022-12-01T04:34:28.639Z,102718.16
2022-12-01T04:36:55.225Z,102717.22
2022-12-01T04:39:21.563Z,102718.16
2022-12-01T04:41:48.049Z,102716.31
2022-12-01T04:44:14.740Z,102722.56
2022-12-01T04:46:41.246Z,102728.59
2022-12-01T04:49:07.541Z,102731.91
2022-12-01T04:51:33.816Z,102720.47
2022-12-01T04:54:01.120Z,102726.50
2022-12-01T04:56:27.367Z,102725.59
2022-12-01T04:58:53.700Z,102723.00
2022-12-01T05:01:20.085Z,102726.41
2022-12-01T05:03:51.082Z,102722.06
2022-12-01T05:06:18.830Z,102723.72
2022-12-01T05:08:45.323Z,102722.91
2022-12-01T05:11:12.676Z,102722.91
2022-12-01T05:13:40.148Z,102716.59
2022-12-01T05:16:11.195Z,102721.72
2022-12-01T05:18:37.784Z,102730.38
2022-12-01T05:21:05.242Z,102728.56
2022-12-01T05:23:32.661Z,102721.53
2022-12-01T05:25:59.006Z,102730.28
2022-12-01T05:28:26.561Z,102729.19
2022-12-01T05:30:54.071Z,102729.91
2022-12-01T05:33:21.127Z,102731.63
2022-12-01T05:35:47.632Z,102736.84
2022-12-01T05:38:13.896Z,102741.16
2022-12-01T05:40:40.258Z,102741.97
2022-12-01T05:43:06.896Z,102748.81
2022-12-01T05:45:33.830Z,102744.41
2022-12-01T05:48:00.996Z,102745.50
2022-12-01T05:50:28.067Z,102740.44
2022-12-01T05:52:54.354Z,102743.16
2022-12-01T05:55:20.624Z,102747.66
2022-12-01T05:57:46.997Z,102749.38
2022-12-01T06:00:13.872Z,102751.19
2022-12-01T06:02:40.641Z,102752.88
2022-12-01T06:05:07.428Z,102751.28
2022-12-01T06:07:35.561Z,102748.66
2022-12-01T06:10:02.343Z,102751.19
2022-12-01T06:12:28.820Z,102756.31
2022-12-01T06:14:55.054Z,102761.34
2022-12-01T06:17:21.705Z,102748.19
2022-12-01T06:19:48.384Z,102760.34
2022-12-01T06:22:14.859Z,102768.34
2022-12-01T06:24:41.114Z,102770.19
2022-12-01T06:27:07.364Z,102769.28
2022-12-01T06:29:35.670Z,102764.88
2022-12-01T06:32:05.468Z,102779.63
2022-12-01T06:34:31.761Z,102776.13
2022-12-01T06:36:58.004Z,102774.41
2022-12-01T06:39:24.287Z,102775.41
2022-12-01T06:41:50.626Z,102773.59
2022-12-01T06:44:16.885Z,102776.19
2022-12-01T06:46:43.176Z,102778.91
2022-12-01T06:49:13.028Z,102785.03
2022-12-01T06:51:39.580Z,102786.84
2022-12-01T06:54:06.067Z,102781.53
2022-12-01T06:56:32.363Z,102787.56
2022-12-01T06:58:59.080Z,102788.38
2022-12-01T07:01:26.019Z,102782.25
2022-12-01T07:03:52.340Z,102793.59
2022-12-01T07:06:18.578Z,102794.59
2022-12-01T07:08:44.943Z,102796.41
2022-12-01T07:11:12.724Z,102802.63
2022-12-01T07:13:39.569Z,102809.72
2022-12-01T07:16:06.712Z,102806.16
2022-12-01T07:18:33.408Z,102803.44
2022-12-01T07:21:00.949Z,102800.91
2022-12-01T07:23:27.225Z,102803.53
2022-12-01T07:26:03.880Z,102810.56
2022-12-01T07:28:30.208Z,102806.16
2022-12-01T07:31:02.938Z,102802.63
2022-12-01T07:33:29.271Z,102806.16
2022-12-01T07:35:55.520Z,102801.03
2022-12-01T07:38:22.399Z,102812.16
2022-12-01T07:40:48.809Z,102808.56
2022-12-01T07:43:15.057Z,102809.38
2022-12-01T07:45:41.356Z,102808.47
2022-12-01T07:48:07.643Z,102806.66
2022-12-01T07:50:33.893Z,102811.78
2022-12-01T07:53:00.270Z,102811.78
2022-12-01T07:55:26.536Z,102813.47
2022-12-01T07:57:53.549Z,102813.47
2022-12-01T08:00:20.005Z,102802.25
2022-12-01T08:02:48.208Z,102805.84
2022-12-01T08:05:14.776Z,102807.75
2022-12-01T08:07:41.118Z,102806.03
2022-12-01T08:10:07.691Z,102810.34
2022-12-01T08:12:33.949Z,102812.16
2022-12-01T08:15:00.192Z,102811.38
2022-12-01T08:17:26.489Z,102816.69
2022-12-01T08:19:52.809Z,102818.59
2022-12-01T08:22:19.101Z,102827.31
2022-12-01T08:24:45.382Z,102818.69
2022-12-01T08:27:11.658Z,102818.75
2022-12-01T08:29:37.902Z,102814.53
2022-12-01T08:32:04.250Z,102816.34
2022-12-01T08:34:30.569Z,102817.44
2022-12-01T08:36:56.818Z,102822.75
2022-12-01T08:39:23.066Z,102828.06
2022-12-01T08:41:49.313Z,102831.50
2022-12-01T08:44:15.563Z,102821.94
2022-12-01T08:46:42.028Z,102827.19
2022-12-01T08:49:08.402Z,102829.59
2022-12-01T08:51:34.701Z,102827.91
2022-12-01T08:54:00.938Z,102833.28
2022-12-01T08:56:32.324Z,102831.69
2022-12-01T08:58:58.988Z,102825.53
2022-12-01T09:01:28.145Z,102838.72
2022-12-01T09:04:06.217Z,102842.41
2022-12-01T09:06:40.489Z,102838.19
2022-12-01T09:09:07.749Z,102847.72
2022-12-01T09:11:34.093Z,102846.75
2022-12-01T09:14:03.787Z,102851.25
2022-12-01T09:16:30.203Z,102854.06
2022-12-01T09:18:56.574Z,102854.69
2022-12-01T09:21:24.452Z,102846.84
2022-12-01T09:23:50.806Z,102857.56
2022-12-01T09:26:18.938Z,102847.22
2022-12-01T09:28:46.097Z,102850.84
2022-12-01T09:31:13.133Z,102851.81
2022-12-01T09:33:39.528Z,102857.66
2022-12-01T09:36:06.713Z,102845.50
2022-12-01T09:38:34.097Z,102846.88
2022-12-01T09:41:02.109Z,102841.81
2022-12-01T09:43:30.212Z,102835.78
2022-12-01T09:46:02.275Z,102840.09
2022-12-01T09:48:34.448Z,102839.19
2022-12-01T09:51:00.928Z,102828.09
2022-12-01T09:53:28.887Z,102823.91
2022-12-01T09:56:02.532Z,102827.69
2022-12-01T09:58:32.873Z,102832.47
2022-12-01T10:01:00.189Z,102834.16
2022-12-01T10:03:27.033Z,102829.13
2022-12-01T10:06:29.393Z,102837.22
2022-12-01T10:08:57.853Z,102832.63
2022-12-01T10:11:30.989Z,102829.22
2022-12-01T10:13:58.393Z,102831.03
2022-12-01T10:16:29.872Z,102829.13
2022-12-01T10:19:05.907Z,102823.00
2022-12-01T10:21:55.157Z,102833.63
2022-12-01T10:24:24.372Z,102825.59
2022-12-01T10:26:59.286Z,102819.56
2022-12-01T10:29:28.487Z,102815.66
2022-12-01T10:31:57.777Z,102823.25
2022-12-01T10:34:28.716Z,102817.13
2022-12-01T10:36:55.744Z,102828.50
2022-12-01T10:39:30.493Z,102824.09
2022-12-01T10:42:03.978Z,102824.00
2022-12-01T10:44:30.573Z,102819.63
2022-12-01T10:46:57.040Z,102821.47
2022-12-01T10:49:34.700Z,102818.28
2022-12-01T10:52:00.961Z,102809.38
2022-12-01T10:54:32.807Z,102814.06
2022-12-01T10:56:59.282Z,102810.81
2022-12-01T10:59:28.197Z,102813.53
2022-12-01T11:01:55.231Z,102811.66
2022-12-01T11:04:27.520Z,102809.72
2022-12-01T11:06:54.011Z,102817.50
2022-12-01T11:09:26.453Z,102809.81
2022-12-01T11:12:00.487Z,102816.88
2022-12-01T11:14:45.933Z,102820.38
2022-12-01T11:17:35.455Z,102812.63
2022-12-01T11:20:20.748Z,102815.34
2022-12-01T11:22:47.102Z,102809.91
2022-12-01T11:25:20.718Z,102804.59
2022-12-01T11:27:52.668Z,102813.25
2022-12-01T11:30:26.242Z,102802.44
2022-12-01T11:32:58.053Z,102812.09
2022-12-01T11:35:25.644Z,102812.09
2022-12-01T11:38:21.121Z,102810.38
2022-12-01T11:40:49.898Z,102805.31
2022-12-01T11:43:28.459Z,102805.41
2022-12-01T11:45:56.061Z,102807.28
2022-12-01T11:48:22.857Z,102805.69
2022-12-01T11:51:08.936Z,102805.69
2022-12-01T11:53:39.457Z,102801.72
2022-12-01T11:56:15.004Z,102803.78
2022-12-01T11:58:42.082Z,102792.22
2022-12-01T12:01:18.970Z,102789.06
2022-12-01T12:04:02.229Z,102780.34
2022-12-01T12:06:48.747Z,102782.03
2022-12-01T12:09:23.772Z,102782.78
2022-12-01T12:11:54.540Z,102786.66
2022-12-01T12:14:56.177Z,102783.09
2022-12-01T12:17:28.291Z,102785.72
2022-12-01T12:20:23.788Z,102783.59
2022-12-01T12:22:55.195Z,102778.06
2022-12-01T12:25:57.410Z,102782.25
2022-12-01T12:28:32.627Z,102783.03
2022-12-01T12:31:01.783Z,102788.00
2022-12-01T12:33:43.975Z,102789.81
2022-12-01T12:36:10.192Z,102789.47
2022-12-01T12:38:46.196Z,102787.00
2022-12-01T12:41:30.636Z,102795.22
2022-12-01T12:44:06.152Z,102794.84
2022-12-01T12:46:35.468Z,102793.34
2022-12-01T12:49:21.014Z,102793.22
2022-12-01T12:51:51.525Z,102794.84
2022-12-01T12:54:25.941Z,102795.66
2022-12-01T12:56:55.419Z,102796.28
2022-12-01T12:59:44.677Z,102796.19
2022-12-01T13:02:18.611Z,102793.16
2022-12-01T13:05:06.819Z,102792.22
2022-12-01T13:07:44.859Z,102799.44
2022-12-01T13:10:16.223Z,102793.25
2022-12-01T13:12:45.678Z,102793.69
2022-12-01T13:15:31.462Z,102785.13
2022-12-01T13:18:01.923Z,102790.63
2022-12-01T13:20:29.210Z,102789.38
2022-12-01T13:22:57.728Z,102791.34
2022-12-01T13:25:29.590Z,102791.34
2022-12-01T13:27:58.029Z,102784.22
2022-12-01T13:30:25.514Z,102784.75
2022-12-01T13:33:05.353Z,102791.41
2022-12-01T13:35:36.127Z,102782.41
2022-12-01T13:38:21.190Z,102779.78
2022-12-01T13:40:48.346Z,102781.44
2022-12-01T13:43:21.832Z,102770.78
2022-12-01T13:45:48.677Z,102771.31
2022-12-01T13:48:50.011Z,102768.88
2022-12-01T13:51:16.498Z,102774.75
2022-12-01T13:54:02.928Z,102772.94
2022-12-01T13:56:58.623Z,102767.44
2022-12-01T13:59:41.552Z,102763.84
2022-12-01T14:02:16.499Z,102761.88
2022-12-01T14:04:42.865Z,102766.91
2022-12-01T14:07:13.529Z,102764.09
2022-12-01T14:09:40.645Z,102759.31
2022-12-01T14:12:15.795Z,102760.84
2022-12-01T14:14:46.903Z,102755.06
2022-12-01T14:17:27.824Z,102756.41
2022-12-01T14:19:54.967Z,102758.16
2022-12-01T14:22:32.423Z,102762.13
2022-12-01T14:24:58.977Z,102763.34
2022-12-01T14:27:42.079Z,102766.38
2022-12-01T14:30:27.188Z,102769.44
2022-12-01T14:33:13.388Z,102765.34
2022-12-01T14:35:39.900Z,102764.94
2022-12-01T14:38:07.090Z,102769.88
2022-12-01T14:40:33.720Z,102761.03
2022-12-01T14:43:19.713Z,102771.28
2022-12-01T14:45:50.539Z,102769.47
2022-12-01T14:48:23.836Z,102761.47
2022-12-01T14:50:52.005Z,102764.75
2022-12-01T14:53:24.095Z,102762.75
2022-12-01T14:55:52.840Z,102765.38
2022-12-01T14:58:24.000Z,102762.59
2022-12-01T15:01:00.644Z,102768.78
2022-12-01T15:03:32.119Z,102773.91
2022-12-01T15:05:58.514Z,102781.84
2022-12-01T15:08:41.999Z,102779.13
2022-12-01T15:11:20.552Z,102774.91
2022-12-01T15:13:51.202Z,102769.69
2022-12-01T15:16:19.288Z,102769.91
2022-12-01T15:18:45.918Z,102776.13
2022-12-01T15:21:14.372Z,102771.91
2022-12-01T15:23:53.715Z,102765.97
2022-12-01T15:26:21.038Z,102769.56
2022-12-01T15:28:47.337Z,102762.06
2022-12-01T15:31:13.706Z,102763.84
2022-12-01T15:33:48.594Z,102764.16
2022-12-01T15:36:15.131Z,102771.38
2022-12-01T15:38:45.082Z,102767.94
2022-12-01T15:41:32.710Z,102766.94
2022-12-01T15:44:01.863Z,102764.31
2022-12-01T15:46:29.649Z,102772.25
2022-12-01T15:49:14.633Z,102776.66
2022-12-01T15:54:23.323Z,102774.25
2022-12-01T15:56:56.792Z,102774.16
2022-12-01T15:59:28.717Z,102781.97
2022-12-01T16:01:56.733Z,102784.50
2022-12-01T16:04:25.000Z,102785.50
2022-12-01T16:07:02.378Z,102786.50
2022-12-01T16:09:31.372Z,102779.38
2022-12-01T16:12:07.064Z,102779.28
2022-12-01T16:14:33.766Z,102784.44
2022-12-01T16:17:00.124Z,102780.19
2022-12-01T16:19:30.706Z,102778.59
2022-12-01T16:22:04.590Z,102786.31
2022-12-01T16:24:30.863Z,102788.22
2022-12-01T16:26:59.936Z,102789.91
2022-12-01T16:29:28.708Z,102785.59
2022-12-01T16:32:19.323Z,102775.06
2022-12-01T16:34:57.400Z,102781.97
2022-12-01T16:37:24.070Z,102785.31
2022-12-01T16:39:50.404Z,102781.09
2022-12-01T16:42:18.000Z,102790.31
2022-12-01T16:44:48.268Z,102778.91
2022-12-01T16:47:19.682Z,102779.72
2022-12-01T16:49:46.285Z,102781.41
2022-12-01T16:54:58.903Z,102776.69
2022-12-01T16:57:25.174Z,102785.44
2022-12-01T16:59:51.444Z,102781.91
2022-12-01T17:02:17.923Z,102778.41
2022-12-01T17:04:44.296Z,102786.16
2022-12-01T17:07:10.539Z,102784.31
2022-12-01T17:09:36.868Z,102786.84
2022-12-01T17:12:03.191Z,102784.97
2022-12-01T17:14:29.587Z,102786.03
2022-12-01T17:16:58.373Z,102790.44
2022-12-01T17:19:24.728Z,102786.84
2022-12-01T17:21:50.981Z,102790.34
2022-12-01T17:24:19.174Z,102783.44
2022-12-01T17:26:45.728Z,102782.63
2022-12-01T17:29:11.982Z,102787.03
2022-12-01T17:31:38.308Z,102794.09
2022-12-01T17:34:04.691Z,102801.91
2022-12-01T17:36:30.940Z,102795.06
2022-12-01T17:38:58.526Z,102795.06
2022-12-01T17:41:26.768Z,102797.78
2022-12-01T17:43:53.007Z,102790.66
2022-12-01T17:46:19.335Z,102793.25
2022-12-01T17:48:46.315Z,102795.88
2022-12-01T17:51:13.242Z,102792.97
2022-12-01T17:53:40.235Z,102794.75
2022-12-01T17:56:08.044Z,102788.66
2022-12-01T17:58:34.645Z,102790.25
2022-12-01T18:01:00.947Z,102790.34
2022-12-01T18:03:27.200Z,102793.97
2022-12-01T18:05:57.513Z,102790.56
2022-12-01T18:08:24.418Z,102790.66
2022-12-01T18:10:50.698Z,102790.75
2022-12-01T18:13:18.473Z,102795.38
2022-12-01T18:15:46.624Z,102797.28
2022-12-01T18:18:12.903Z,102798.25
2022-12-01T18:20:41.183Z,102799.16
2022-12-01T18:23:07.474Z,102791.25
2022-12-01T18:25:34.821Z,102793.94
2022-12-01T18:28:01.245Z,102787.91
2022-12-01T18:30:27.494Z,102791.13
2022-12-01T18:32:53.839Z,102794.88
2022-12-01T18:35:20.099Z,102803.56
2022-12-01T18:37:46.367Z,102803.56
2022-12-01T18:40:13.008Z,102809.72
2022-12-01T18:42:39.365Z,102807.09
2022-12-01T18:45:05.786Z,102806.28
2022-12-01T18:47:32.040Z,102806.28
2022-12-01T18:49:58.283Z,102804.50
2022-12-01T18:52:24.604Z,102800.16
2022-12-01T18:54:51.154Z,102802.50
2022-12-01T18:57:18.968Z,102802.50
2022-12-01T18:59:45.651Z,102805.00
2022-12-01T19:02:11.932Z,102801.56
2022-12-01T19:04:38.194Z,102806.69
2022-12-01T19:07:04.464Z,102800.69
2022-12-01T19:09:33.938Z,102802.38
2022-12-01T19:12:00.188Z,102798.09
2022-12-01T19:14:27.972Z,102800.50
2022-12-01T19:16:55.579Z,102805.81
2022-12-01T19:19:22.011Z,102800.69
2022-12-01T19:21:49.713Z,102805.91
2022-12-01T19:24:15.983Z,102801.56
2022-12-01T19:26:42.309Z,102813.63
2022-12-01T19:29:08.577Z,102801.19
2022-12-01T19:31:35.869Z,102804.59
2022-12-01T19:34:03.616Z,102800.88
2022-12-01T19:36:29.931Z,102801.81
2022-12-01T19:38:57.614Z,102801.59
2022-12-01T19:41:25.251Z,102804.00
2022-12-01T19:43:52.472Z,102796.00
2022-12-01T19:46:20.270Z,102801.22
2022-12-01T19:48:47.334Z,102801.13
2022-12-01T19:51:17.700Z,102805.31
2022-12-01T19:53:44.000Z,102801.81
2022-12-01T19:56:10.265Z,102797.28
2022-12-01T19:58:36.533Z,102802.50
2022-12-01T20:01:07.409Z,102803.63
2022-12-01T20:03:33.909Z,102801.81
2022-12-01T20:06:00.991Z,102810.63
2022-12-01T20:08:27.231Z,102806.22
2022-12-01T20:10:53.832Z,102802.91
2022-12-01T20:13:20.077Z,102801.13
2022-12-01T20:15:46.325Z,102801.13
2022-12-01T20:18:14.538Z,102803.63
2022-12-01T20:20:40.813Z,102798.41
2022-12-01T20:23:07.063Z,102799.13
2022-12-01T20:25:34.167Z,102797.50
2022-12-01T20:28:00.810Z,102793.09
2022-12-01T20:30:27.094Z,102795.78
2022-12-01T20:32:53.470Z,102804.31
2022-12-01T20:35:19.941Z,102793.91
2022-12-01T20:37:46.204Z,102796.50
2022-12-01T20:40:12.599Z,102801.63
2022-12-01T20:42:39.627Z,102794.59
2022-12-01T20:45:07.212Z,102794.50
2022-12-01T20:47:36.547Z,102795.22
2022-12-01T20:50:04.499Z,102796.91
2022-12-01T20:52:30.808Z,102795.97
2022-12-01T20:54:57.121Z,102786.34
2022-12-01T20:57:23.404Z,102790.00
2022-12-01T20:59:49.740Z,102789.19
2022-12-01T21:02:16.067Z,102790.06
2022-12-01T21:04:42.445Z,102790.75
2022-12-01T21:07:08.710Z,102788.97
2022-12-01T21:09:34.989Z,102786.16
2022-12-01T21:12:21.110Z,102790.38
2022-12-01T21:14:50.584Z,102794.78
2022-12-01T21:17:26.401Z,102797.28
2022-12-01T21:20:01.403Z,102792.78
2022-12-01T21:22:27.704Z,102788.28
2022-12-01T21:25:01.239Z,102788.06
2022-12-01T21:27:28.404Z,102786.97
2022-12-01T21:29:55.274Z,102783.28
2022-12-01T21:32:32.070Z,102780.66
2022-12-01T21:35:01.188Z,102781.25
2022-12-01T21:37:27.848Z,102781.25
2022-12-01T21:39:56.116Z,102783.88
2022-12-01T21:42:26.086Z,102780.25
2022-12-01T21:44:52.687Z,102784.47
2022-12-01T21:47:19.157Z,102783.53
2022-12-01T21:49:45.759Z,102783.16
2022-12-01T21:52:16.297Z,102779.53
2022-12-01T21:54:42.721Z,102780.34
2022-12-01T21:57:29.278Z,102781.03
2022-12-01T21:59:58.432Z,102772.41
2022-12-01T22:02:33.559Z,102769.00
2022-12-01T22:04:59.925Z,102767.31
2022-12-01T22:07:26.921Z,102763.56
2022-12-01T22:09:53.949Z,102760.88
2022-12-01T22:12:20.176Z,102766.88
2022-12-01T22:14:46.453Z,102770.41
2022-12-01T22:17:12.707Z,102768.72
2022-12-01T22:19:42.274Z,102774.00
2022-12-01T22:22:08.488Z,102777.13
2022-12-01T22:24:40.863Z,102772.00
2022-12-01T22:27:19.209Z,102776.09
2022-12-01T22:29:46.515Z,102774.31
2022-12-01T22:32:12.731Z,102778.59
2022-12-01T22:34:39.399Z,102768.88
2022-12-01T22:37:22.318Z,102773.28
2022-12-01T22:39:51.274Z,102783.81
2022-12-01T22:42:21.027Z,102792.66
2022-12-01T22:44:47.583Z,102780.50
2022-12-01T22:47:14.367Z,102781.22
2022-12-01T22:49:42.079Z,102782.94
2022-12-01T22:52:14.339Z,102781.91
2022-12-01T22:54:43.044Z,102785.22
2022-12-01T22:57:09.324Z,102787.72
2022-12-01T22:59:37.397Z,102787.44
2022-12-01T23:02:16.511Z,102783.19
2022-12-01T23:04:45.722Z,102785.81
2022-12-01T23:07:30.248Z,102792.72
2022-12-01T23:09:58.176Z,102791.81
2022-12-01T23:12:29.945Z,102785.47
2022-12-01T23:14:57.846Z,102788.91
2022-12-01T23:17:25.638Z,102783.69
2022-12-01T23:19:53.064Z,102779.06
2022-12-01T23:22:20.010Z,102788.38
2022-12-01T23:24:46.300Z,102778.44
2022-12-01T23:27:13.854Z,102783.66
2022-12-01T23:29:40.131Z,102780.47
2022-12-01T23:32:06.377Z,102781.75
2022-12-01T23:34:33.712Z,102782.56
2022-12-01T23:37:00.001Z,102779.63
2022-12-01T23:39:30.084Z,102782.22
2022-12-01T23:41:56.349Z,102784.72
2022-12-01T23:44:36.344Z,102780.66
2022-12-01T23:47:03.144Z,102777.94
2022-12-01T23:49:31.229Z,102773.53
2022-12-01T23:51:59.261Z,102769.09
2022-12-01T23:54:32.100Z,102759.38
2022-12-01T23:57:01.132Z,102771.41
2022-12-01T23:59:28.648Z,102760.06
